AA755 / N285AY 7700 Squawk Report (18th of June, 2019)

Aircraft A332 Reg No. N285AY Age 9 years old
Model A330 Jet engines 2 First flight 01-03-10
Registered 08-04-15 Rollout 02-10 Delivered 24-03-10
Construction No. 1100 Line No. N/A Series 243
ADSHEX A2E0A5 Airline name American Airlines Owner US Airways Inc
Airfield based Philadelphia International~PA~N First tracked 2017-07-13 09:01:00

Flight history for N285AY

Time Lat Lon Altitude Heading Speed Vertical Rate
2019-06-18 10:13:14 GMT 49.019852 2.498263 550 85 147 -576
2019-06-18 10:13:08 GMT 49.019485 2.491995 675 84 146 -576
2019-06-18 10:13:00 GMT 49.019039 2.484139 775 85 146 -704
2019-06-18 10:12:55 GMT 49.018715 2.477489 875 84 147 -832
2019-06-18 10:12:49 GMT 49.018387 2.472065 925 84 147 -832
2019-06-18 10:12:39 GMT 49.017876 2.462383 1,050 85 148 -768
2019-06-18 10:12:30 GMT 49.017319 2.452625 1,250 85 147 -960
2019-06-18 10:12:27 GMT 49.016922 2.443824 1,300 85 147 -640
2019-06-18 10:12:19 GMT 49.016647 2.439740 1,325 84 147 -832
2019-06-18 10:12:15 GMT 49.016434 2.436580 1,375 85 150 -896
2019-06-18 10:12:08 GMT 49.016014 2.428846 1,475 85 146 -704
2019-06-18 10:12:04 GMT 49.015869 2.425302 1,500 85 146 -832
2019-06-18 10:11:57 GMT 49.015411 2.417426 1,600 84 148 -768
2019-06-18 10:11:49 GMT 49.014999 2.410091 1,675 84 149 -768
2019-06-18 10:11:46 GMT 49.014771 2.405724 1,775 85 151 -704
2019-06-18 10:11:43 GMT 49.014633 2.403611 2,125 85 151 -704
2019-06-18 10:11:37 GMT 49.014294 2.397332 1,850 85 154 -832
2019-06-18 10:11:34 GMT 49.014107 2.393574 2,125 85 156 -896
2019-06-18 10:11:26 GMT 49.013687 2.385768 2,000 85 157 -896
2019-06-18 10:11:22 GMT 49.013409 2.381142 2,075 84 157 -832
2019-06-18 10:11:15 GMT 49.012985 2.373610 2,175 84 156 -960
2019-06-18 10:11:12 GMT 49.012756 2.369666 2,225 84 156 -704
2019-06-18 10:11:04 GMT 49.012299 2.361497 2,300 85 158 -640
2019-06-18 10:11:01 GMT 49.012058 2.356423 2,350 85 161 -768
2019-06-18 10:10:52 GMT 49.011219 2.341678 2,550 85 169 -960
2019-06-18 10:10:45 GMT 49.011108 2.339243 2,575 84 171 -1088
2019-06-18 10:10:41 GMT 49.010880 2.334806 2,650 84 171 -1088
2019-06-18 10:10:37 GMT 49.010521 2.329102 2,750 85 172 -960
2019-06-18 10:10:33 GMT 49.010239 2.323608 2,850 85 176 -768
2019-06-18 10:10:26 GMT 49.009636 2.313779 2,900 85 177 -960
2019-06-18 10:10:21 GMT 49.009453 2.310165 2,950 85 176 -512
2019-06-18 10:10:14 GMT 49.008957 2.301495 2,975 85 177 0
2019-06-18 10:10:11 GMT 49.008774 2.297833 2,975 85 177 0
2019-06-18 10:10:03 GMT 49.008194 2.287758 2,975 85 182 0
2019-06-18 10:10:00 GMT 49.007950 2.283325 2,975 85 184 -64
2019-06-18 10:09:52 GMT 49.007404 2.273013 2,975 85 186 -64
2019-06-18 10:09:49 GMT 49.007172 2.268894 2,975 85 187 64
2019-06-18 10:09:41 GMT 49.006531 2.257550 2,975 85 187 0
2019-06-18 10:09:38 GMT 49.006439 2.255648 2,975 85 187 0
2019-06-18 10:09:32 GMT 49.005981 2.247549 2,975 85 187 64
2019-06-18 10:09:28 GMT 49.005634 2.241355 2,975 84 187 0
2019-06-18 10:09:19 GMT 49.004837 2.229239 2,975 83 189 0
2019-06-18 10:09:16 GMT 49.004654 2.226633 2,975 82 189 0
2019-06-18 10:09:11 GMT 49.003922 2.219027 3,025 77 189 -384
2019-06-18 10:09:08 GMT 49.003326 2.214661 3,025 77 189 -384
2019-06-18 10:09:05 GMT 49.002914 2.212125 3,025 75 189 -256
2019-06-18 10:09:02 GMT 49.001907 2.206773 3,025 72 189 320
2019-06-18 10:08:57 GMT 49.000141 2.198133 3,000 75 189 384
2019-06-18 10:08:54 GMT 49.000141 2.198133 3,000 77 190 384
2019-06-18 10:08:47 GMT 48.999802 2.188040 2,950 115 198 -64
2019-06-18 10:08:44 GMT 49.000488 2.183674 2,950 112 198 -64
2019-06-18 10:08:41 GMT 49.001629 2.179919 2,975 130 204 -64
2019-06-18 10:08:36 GMT 49.004097 2.174570 2,975 132 205 0
2019-06-18 10:08:33 GMT 49.006100 2.171173 2,975 133 207 64
2019-06-18 10:08:27 GMT 49.011032 2.163295 2,950 133 217 -64
2019-06-18 10:08:24 GMT 49.011795 2.162123 2,950 133 217 0
2019-06-18 10:08:20 GMT 49.018021 2.152264 2,975 133 222 -64
2019-06-18 10:08:16 GMT 49.018021 2.152264 2,975 133 223 -64
2019-06-18 10:08:12 GMT 49.020855 2.147755 2,975 133 224 -64
2019-06-18 10:08:07 GMT 49.025139 2.140888 2,975 133 224 64
2019-06-18 10:08:04 GMT 49.026535 2.138720 2,975 133 224 0
2019-06-18 10:08:00 GMT 49.029465 2.134024 2,975 133 224 0
2019-06-18 10:07:55 GMT 49.033009 2.128384 2,975 133 224 0
2019-06-18 10:07:50 GMT 49.036606 2.122685 2,975 133 224 0
2019-06-18 10:07:46 GMT 49.039711 2.117687 2,975 133 224 0
2019-06-18 10:07:42 GMT 49.041992 2.114073 2,975 133 224 0
2019-06-18 10:07:39 GMT 49.045063 2.109230 2,975 133 224 0
2019-06-18 10:07:35 GMT 49.047207 2.105761 2,975 133 223 -128
2019-06-18 10:07:32 GMT 49.049652 2.101910 3,000 133 222 -128
2019-06-18 10:07:28 GMT 49.051758 2.098530 3,000 133 221 128
2019-06-18 10:07:25 GMT 49.055725 2.092245 3,000 133 220 0
2019-06-18 10:07:21 GMT 49.057446 2.089571 3,000 133 220 -384
2019-06-18 10:07:16 GMT 49.060913 2.084092 3,050 133 222 -768
2019-06-18 10:07:13 GMT 49.063110 2.080571 3,075 133 223 -512
2019-06-18 10:07:07 GMT 49.067230 2.074092 3,100 133 227 -384
2019-06-18 10:07:00 GMT 49.075653 2.060782 3,250 134 244 -192
2019-06-18 10:06:55 GMT 49.075653 2.060782 3,200 133 234 -448
2019-06-18 10:06:51 GMT 49.078815 2.055744 3,225 133 236 -384
2019-06-18 10:06:46 GMT 49.083893 2.047683 3,275 133 239 -320
2019-06-18 10:06:42 GMT 49.086777 2.043175 3,275 134 243 -128
2019-06-18 10:06:38 GMT 49.088684 2.040204 3,450 134 244 -192
2019-06-18 10:06:34 GMT 49.092361 2.034422 3,300 134 246 -256
2019-06-18 10:06:31 GMT 49.095200 2.029935 3,425 133 252 -768
2019-06-18 10:06:28 GMT 49.096783 2.027411 3,350 134 250 -768
2019-06-18 10:06:23 GMT 49.101906 2.019388 3,425 134 254 -640
2019-06-18 10:06:18 GMT 49.105408 2.013878 3,450 133 255 -512
2019-06-18 10:06:11 GMT 49.111496 2.004230 3,500 134 261 -384
2019-06-18 10:06:07 GMT 49.114380 1.999653 3,525 134 263 -960
2019-06-18 10:06:00 GMT 49.122944 1.986140 3,725 133 265 -1856
2019-06-18 10:05:57 GMT 49.122944 1.986140 3,775 133 265 -1600
2019-06-18 10:05:49 GMT 49.130207 1.974720 3,950 133 266 -640
2019-06-18 10:05:46 GMT 49.132278 1.971482 3,975 133 266 -320
2019-06-18 10:05:40 GMT 49.137379 1.963372 3,975 133 265 -64
2019-06-18 10:05:36 GMT 49.141613 1.956723 3,975 133 265 64
2019-06-18 10:05:32 GMT 49.144314 1.952531 3,975 133 265 64
2019-06-18 10:05:28 GMT 49.147980 1.946622 3,975 133 264 -64
2019-06-18 10:05:22 GMT 49.153297 1.938292 3,975 134 264 0
2019-06-18 10:05:16 GMT 49.158554 1.930002 3,975 134 264 64
2019-06-18 10:05:13 GMT 49.161346 1.925565 3,975 134 264 -64
2019-06-18 10:05:08 GMT 49.164795 1.920150 3,975 133 263 0
2019-06-18 10:05:05 GMT 49.168579 1.914156 3,975 133 263 0
2019-06-18 10:05:01 GMT 49.170364 1.911339 3,975 133 263 0
2019-06-18 10:04:56 GMT 49.174713 1.904438 4,225 126 266 -1152
2019-06-18 10:04:52 GMT 49.178833 1.897818 3,975 133 263 -64
2019-06-18 10:04:45 GMT 49.183960 1.889719 4,000 133 263 -192
2019-06-18 10:04:41 GMT 49.187653 1.883866 4,000 133 265 -128
2019-06-18 10:04:31 GMT 49.197010 1.868977 4,075 133 266 -768
2019-06-18 10:04:23 GMT 49.202774 1.859647 4,200 133 267 -1280
2019-06-18 10:04:20 GMT 49.206207 1.854084 4,275 133 266 -1408
2019-06-18 10:04:13 GMT 49.210602 1.846900 4,825 126 266 -1152
2019-06-18 10:04:09 GMT 49.215862 1.838186 4,650 131 265 -1984
2019-06-18 10:03:59 GMT 49.223511 1.823942 4,900 125 265 -1024
2019-06-18 10:03:48 GMT 49.230423 1.806688 4,975 117 266 -64
2019-06-18 10:03:43 GMT 49.232483 1.800529 4,975 117 266 -64
2019-06-18 10:03:40 GMT 49.234222 1.795560 5,000 117 264 0
2019-06-18 10:03:34 GMT 49.237518 1.785771 5,000 117 265 -64
2019-06-18 10:03:31 GMT 49.238953 1.781592 5,000 117 267 -896
2019-06-18 10:03:26 GMT 49.242966 1.769785 5,050 117 266 -704
2019-06-18 10:03:21 GMT 49.244820 1.764390 5,075 117 267 -896
2019-06-18 10:03:17 GMT 49.247288 1.757234 5,150 117 268 -704
2019-06-18 10:03:14 GMT 49.249008 1.752103 5,150 117 268 -704
2019-06-18 10:03:11 GMT 49.252533 1.741685 5,225 117 270 -960
2019-06-18 10:03:08 GMT 49.252533 1.741685 5,275 117 270 -960
2019-06-18 10:03:05 GMT 49.255062 1.734250 5,350 117 271 -1216
2019-06-18 10:03:01 GMT 49.257622 1.726660 5,425 117 272 -1280
2019-06-18 10:02:55 GMT 49.259995 1.719722 5,650 117 273 -1216
2019-06-18 10:02:49 GMT 49.264465 1.706423 5,700 117 273 -1344
2019-06-18 10:02:43 GMT 49.267025 1.698906 5,800 117 273 -1216
2019-06-18 10:02:40 GMT 49.269012 1.692951 5,875 114 279 -2240
2019-06-18 10:02:36 GMT 49.270515 1.688425 5,950 117 275 -1280
2019-06-18 10:02:33 GMT 49.273041 1.680908 6,000 117 275 -1216
2019-06-18 10:02:25 GMT 49.277172 1.668476 6,150 116 276 -1088
2019-06-18 10:02:20 GMT 49.280228 1.659358 6,250 116 277 -1024
2019-06-18 10:02:14 GMT 49.283691 1.648817 6,350 116 279 -1472
2019-06-18 10:02:03 GMT 49.293411 1.616117 6,950 109 281 -1280
2019-06-18 10:01:56 GMT 49.293411 1.616117 6,975 107 283 -960
2019-06-18 10:01:52 GMT 49.294769 1.610003 6,975 105 282 -640
2019-06-18 10:01:46 GMT 49.297073 1.595835 7,000 100 284 0
2019-06-18 10:01:42 GMT 49.297890 1.589548 7,000 100 283 0
2019-06-18 10:01:34 GMT 49.299957 1.571749 7,000 100 281 0
2019-06-18 10:01:31 GMT 49.300404 1.567792 7,000 100 284 0
2019-06-18 10:01:26 GMT 49.301659 1.557167 7,000 100 283 0
2019-06-18 10:01:22 GMT 49.303848 1.538230 7,000 100 283 0
2019-06-18 10:01:17 GMT 49.303848 1.538230 7,000 100 283 0
2019-06-18 10:01:10 GMT 49.305386 1.525076 7,000 100 283 0
2019-06-18 10:01:07 GMT 49.306175 1.518282 7,000 100 283 0
2019-06-18 10:00:59 GMT 49.308689 1.496598 7,000 100 283 0
2019-06-18 10:00:47 GMT 49.310459 1.481781 7,000 100 283 0
2019-06-18 10:00:44 GMT 49.311356 1.473858 7,000 100 282 0
2019-06-18 10:00:37 GMT 49.312820 1.461534 7,000 100 282 0
2019-06-18 10:00:34 GMT 49.313763 1.453231 7,000 100 282 0
2019-06-18 10:00:26 GMT 49.315201 1.441040 7,000 100 281 0
2019-06-18 10:00:23 GMT 49.316322 1.431475 7,000 100 281 -64
2019-06-18 10:00:18 GMT 49.317253 1.423597 7,000 100 281 -128
2019-06-18 10:00:12 GMT 49.318790 1.410153 7,000 100 281 -256
2019-06-18 10:00:04 GMT 49.320282 1.397517 7,025 100 281 -256
2019-06-18 10:00:00 GMT 49.321518 1.386531 7,050 100 281 -192
2019-06-18 09:59:57 GMT 49.322021 1.382376 7,050 100 281 -64
2019-06-18 09:59:52 GMT 49.323074 1.373150 7,100 99 282 -832
2019-06-18 09:59:49 GMT 49.323864 1.366063 7,100 99 282 -832
2019-06-18 09:59:46 GMT 49.324238 1.362955 7,100 99 282 -640
2019-06-18 09:59:42 GMT 49.325310 1.353631 7,200 99 284 -1472
2019-06-18 09:59:35 GMT 49.327030 1.338814 7,400 100 285 -1664
2019-06-18 09:59:30 GMT 49.328247 1.328078 7,550 100 287 -1536
2019-06-18 09:59:25 GMT 49.329437 1.317726 7,750 100 291 -1792
2019-06-18 09:59:21 GMT 49.330215 1.310965 7,750 100 290 -1664
2019-06-18 09:59:14 GMT 49.331726 1.297866 8,000 100 292 -1984
2019-06-18 09:59:11 GMT 49.332756 1.288653 8,100 99 292 -2048
2019-06-18 09:59:03 GMT 49.334618 1.272463 8,350 99 292 -2048
2019-06-18 09:58:59 GMT 49.335224 1.267114 8,450 100 292 -1984
2019-06-18 09:58:49 GMT 49.340904 1.217820 8,975 99 296 -1472
2019-06-18 09:58:35 GMT 49.340904 1.217820 9,225 99 294 -1856
2019-06-18 09:58:32 GMT 49.341522 1.212299 9,300 99 296 -1472
2019-06-18 09:58:26 GMT 49.342903 1.200040 9,450 99 301 -1280
2019-06-18 09:58:19 GMT 49.344952 1.181898 9,625 99 307 -1024
2019-06-18 09:58:16 GMT 49.345421 1.177922 9,650 99 308 -1024
2019-06-18 09:58:07 GMT 49.347748 1.157156 9,825 99 321 -1024
2019-06-18 09:57:54 GMT 49.350861 1.129549 10,000 99 328 -192
2019-06-18 09:57:45 GMT 49.353474 1.106222 10,000 99 337 -64
2019-06-18 09:57:33 GMT 49.356358 1.080491 10,000 99 347 0
2019-06-18 09:57:22 GMT 49.359558 1.051307 10,000 99 358 -64
2019-06-18 09:57:12 GMT 49.362305 1.026729 10,000 99 370 64
2019-06-18 09:57:01 GMT 49.365829 0.995460 10,000 99 377 64
2019-06-18 09:56:51 GMT 49.368301 0.972994 10,000 99 378 0
2019-06-18 09:56:48 GMT 49.369080 0.966233 10,000 99 378 0
2019-06-18 09:56:41 GMT 49.371323 0.946021 10,000 99 378 0
2019-06-18 09:56:34 GMT 49.373165 0.929140 10,000 99 379 0
2019-06-18 09:56:27 GMT 49.375671 0.906513 10,000 99 378 64
2019-06-18 09:56:17 GMT 49.378239 0.883821 10,000 99 378 -64
2019-06-18 09:56:09 GMT 49.380611 0.862354 10,000 99 378 0
2019-06-18 09:56:00 GMT 49.383224 0.838764 10,000 99 376 0
2019-06-18 09:55:50 GMT 49.386200 0.812143 10,000 99 376 0
2019-06-18 09:55:46 GMT 49.387390 0.801509 10,000 99 376 0
2019-06-18 09:55:43 GMT 49.388443 0.791790 10,000 99 376 0
2019-06-18 09:55:37 GMT 49.389999 0.777917 10,000 99 376 0
2019-06-18 09:55:31 GMT 49.391598 0.763044 10,000 99 376 0
2019-06-18 09:55:25 GMT 49.393570 0.745451 10,000 99 376 0
2019-06-18 09:55:19 GMT 49.395447 0.728337 10,000 99 376 0
2019-06-18 09:55:12 GMT 49.397278 0.711292 10,000 99 375 -64
2019-06-18 09:55:08 GMT 49.398468 0.700660 10,000 99 374 0
2019-06-18 09:55:01 GMT 49.400162 0.684885 10,000 99 374 0
2019-06-18 09:54:57 GMT 49.401512 0.672262 10,000 99 374 0
2019-06-18 09:54:52 GMT 49.402954 0.658898 10,000 99 375 0
2019-06-18 09:54:47 GMT 49.404282 0.646644 10,000 99 375 0
2019-06-18 09:54:39 GMT 49.406544 0.625715 10,000 99 375 0
2019-06-18 09:54:36 GMT 49.407394 0.617840 10,000 99 374 0
2019-06-18 09:54:30 GMT 49.408997 0.603403 10,000 99 374 0
2019-06-18 09:54:24 GMT 49.411987 0.575409 10,000 99 374 0
2019-06-18 09:54:20 GMT 49.411987 0.575409 10,000 99 374 0
2019-06-18 09:54:13 GMT 49.413849 0.558190 10,000 99 374 0
2019-06-18 09:54:07 GMT 49.415619 0.541655 10,000 99 374 0
2019-06-18 09:53:57 GMT 49.418427 0.515442 10,000 99 373 0
2019-06-18 09:53:52 GMT 49.419903 0.501974 10,000 99 374 0
2019-06-18 09:53:45 GMT 49.421768 0.484314 10,000 99 374 0
2019-06-18 09:53:38 GMT 49.423859 0.464967 10,000 99 373 0
2019-06-18 09:53:25 GMT 49.427216 0.433256 10,000 99 373 0
2019-06-18 09:53:19 GMT 49.429276 0.414156 10,000 99 374 0
2019-06-18 09:53:16 GMT 49.430145 0.406197 10,000 99 374 0
2019-06-18 09:53:05 GMT 49.432892 0.380329 10,000 99 373 0
2019-06-18 09:52:58 GMT 49.434986 0.360470 10,000 99 373 0
2019-06-18 09:52:55 GMT 49.435684 0.354092 10,000 99 373 64
2019-06-18 09:52:48 GMT 49.437561 0.336023 10,000 99 373 0
2019-06-18 09:52:40 GMT 49.439850 0.314556 10,000 99 373 0
2019-06-18 09:52:28 GMT 49.443085 0.284011 10,000 99 373 64
2019-06-18 09:52:21 GMT 49.445251 0.263600 10,000 99 373 0
2019-06-18 09:52:15 GMT 49.446903 0.247638 10,000 99 373 0
2019-06-18 09:52:09 GMT 49.448254 0.234573 10,000 99 373 0
2019-06-18 09:52:01 GMT 49.450607 0.212137 10,000 99 372 0
2019-06-18 09:51:55 GMT 49.452164 0.197383 10,000 99 373 0
2019-06-18 09:51:50 GMT 49.453884 0.180977 10,000 99 373 0
2019-06-18 09:51:46 GMT 49.454815 0.171921 10,000 99 372 0
2019-06-18 09:51:42 GMT 49.455700 0.163607 10,000 99 372 0
2019-06-18 09:51:36 GMT 49.457283 0.148464 10,000 99 372 0
2019-06-18 09:51:32 GMT 49.458481 0.136895 10,000 99 373 0
2019-06-18 09:51:22 GMT 49.461365 0.109574 10,000 99 372 0
2019-06-18 09:51:16 GMT 49.463013 0.093673 10,000 99 373 0
2019-06-18 09:51:13 GMT 49.463615 0.087965 10,000 99 372 0
2019-06-18 09:51:10 GMT 49.464592 0.078463 10,000 99 371 0
2019-06-18 09:51:03 GMT 49.466446 0.060569 10,000 99 372 0
2019-06-18 09:50:59 GMT 49.467453 0.050956 10,000 99 373 0
2019-06-18 09:50:52 GMT 49.469620 0.030064 10,000 99 373 0
2019-06-18 09:50:42 GMT 49.473064 -0.003489 10,000 98 373 0
2019-06-18 09:50:38 GMT 49.473064 -0.003489 10,000 98 373 0
2019-06-18 09:50:32 GMT 49.474880 -0.021156 10,000 98 372 0
2019-06-18 09:50:28 GMT 49.475765 -0.029841 10,000 98 372 0
2019-06-18 09:50:25 GMT 49.476746 -0.039464 10,000 98 372 0
2019-06-18 09:50:21 GMT 49.477673 -0.048845 10,000 98 372 0
2019-06-18 09:50:18 GMT 49.478348 -0.055438 10,000 98 372 0
2019-06-18 09:50:08 GMT 49.481415 -0.085289 10,000 98 372 0
2019-06-18 09:50:02 GMT 49.482887 -0.099545 10,000 98 372 0
2019-06-18 09:49:59 GMT 49.483585 -0.106597 10,000 98 372 -64
2019-06-18 09:49:53 GMT 49.485031 -0.120633 10,000 98 372 0
2019-06-18 09:49:49 GMT 49.486221 -0.132342 10,000 98 372 -64
2019-06-18 09:49:37 GMT 49.489655 -0.166385 10,000 98 372 0
2019-06-18 09:49:29 GMT 49.491623 -0.185828 10,000 98 368 0
2019-06-18 09:49:25 GMT 49.492664 -0.195824 10,000 98 368 0
2019-06-18 09:49:19 GMT 49.494572 -0.214530 10,000 98 370 0
2019-06-18 09:49:15 GMT 49.495239 -0.221244 10,000 98 367 0
2019-06-18 09:49:07 GMT 49.497272 -0.241402 10,000 98 365 64
2019-06-18 09:49:04 GMT 49.498158 -0.249791 10,000 98 363 0
2019-06-18 09:48:58 GMT 49.499695 -0.265157 10,000 98 361 -64
2019-06-18 09:48:55 GMT 49.503788 -0.305687 10,000 98 358 -64
2019-06-18 09:48:42 GMT 49.503788 -0.305687 11,450 98 389 -3264
2019-06-18 09:48:34 GMT 49.505676 -0.324314 10,450 98 362 -1472
2019-06-18 09:48:31 GMT 49.506409 -0.331614 10,450 98 362 -1472
2019-06-18 09:48:26 GMT 49.507874 -0.345780 10,150 98 360 -896
2019-06-18 09:48:22 GMT 49.508911 -0.356313 10,275 98 361 -1536
2019-06-18 09:48:13 GMT 49.511169 -0.379173 10,475 98 363 -1344
2019-06-18 09:48:08 GMT 49.512356 -0.390980 12,150 98 401 -2816
2019-06-18 09:48:03 GMT 49.513657 -0.404267 10,700 98 370 -1472
2019-06-18 09:48:00 GMT 49.514450 -0.412284 10,900 98 379 -2048
2019-06-18 09:47:53 GMT 49.516434 -0.432587 11,050 98 386 -3136
2019-06-18 09:47:48 GMT 49.517429 -0.442571 11,250 98 388 -3136
2019-06-18 09:47:40 GMT 49.519684 -0.465546 11,725 98 392 -3904
2019-06-18 09:47:31 GMT 49.522224 -0.490376 13,325 98 405 -2560
2019-06-18 09:47:20 GMT 49.525204 -0.520663 13,100 98 398 -3456
2019-06-18 09:47:17 GMT 49.526138 -0.530018 13,275 98 404 -2560
2019-06-18 09:47:10 GMT 49.528015 -0.549027 13,575 98 409 -2560
2019-06-18 09:47:04 GMT 49.531254 -0.582053 14,075 98 416 -3456
2019-06-18 09:46:59 GMT 49.531254 -0.582053 14,075 98 416 -3456
2019-06-18 09:46:54 GMT 49.532700 -0.596676 14,575 98 420 -4160
2019-06-18 09:46:51 GMT 49.533554 -0.605115 15,075 98 422 -4480
2019-06-18 09:46:47 GMT 49.534698 -0.616793 15,000 98 425 -4800
2019-06-18 09:46:42 GMT 49.536209 -0.631714 15,325 97 432 -3456
2019-06-18 09:46:37 GMT 49.537720 -0.646603 16,400 98 426 -4736
2019-06-18 09:46:28 GMT 49.540283 -0.672479 16,650 98 427 -4608
2019-06-18 09:46:20 GMT 49.542755 -0.699005 17,225 98 437 -1792
2019-06-18 09:46:16 GMT 49.543762 -0.709991 17,375 97 431 -3776
2019-06-18 09:46:12 GMT 49.545868 -0.732615 17,700 98 436 -1856
2019-06-18 09:46:08 GMT 49.545868 -0.732615 17,800 98 436 -1856
2019-06-18 09:46:05 GMT 49.546738 -0.742228 17,900 97 437 0
2019-06-18 09:46:02 GMT 49.547745 -0.753214 18,000 97 437 0
2019-06-18 09:45:55 GMT 49.549877 -0.777060 18,000 98 438 -64
2019-06-18 09:45:51 GMT 49.550621 -0.785151 18,000 97 438 0
2019-06-18 09:45:47 GMT 49.552231 -0.802580 18,000 97 438 -64
2019-06-18 09:45:39 GMT 49.554066 -0.823232 18,000 97 437 0
2019-06-18 09:45:35 GMT 49.555298 -0.836623 18,000 97 437 0
2019-06-18 09:45:28 GMT 49.557369 -0.860126 18,000 97 437 64
2019-06-18 09:45:25 GMT 49.559235 -0.880785 18,000 97 437 0
2019-06-18 09:45:21 GMT 49.559235 -0.880785 18,000 97 441 -1024
2019-06-18 09:45:17 GMT 49.559978 -0.889299 18,000 97 437 0
2019-06-18 09:45:14 GMT 49.561295 -0.903987 18,000 97 437 0
2019-06-18 09:45:06 GMT 49.563034 -0.923863 18,000 97 437 0
2019-06-18 09:45:03 GMT 49.563980 -0.934654 18,000 97 439 0
2019-06-18 09:44:58 GMT 49.566635 -0.964125 18,000 97 439 -64
2019-06-18 09:44:54 GMT 49.566635 -0.964125 18,000 97 453 -3328
2019-06-18 09:44:49 GMT 49.567932 -0.978361 18,025 97 441 -384
2019-06-18 09:44:43 GMT 49.569523 -0.996267 18,075 97 441 -704
2019-06-18 09:44:40 GMT 49.570221 -1.004020 18,125 97 440 -1216
2019-06-18 09:44:36 GMT 49.571289 -1.016310 18,300 97 438 -1664
2019-06-18 09:44:30 GMT 49.572922 -1.034377 18,400 97 437 -1856
2019-06-18 09:44:27 GMT 49.573757 -1.044072 18,450 97 437 -1856
2019-06-18 09:44:23 GMT 49.575012 -1.058176 18,750 97 440 -3136
2019-06-18 09:44:19 GMT 49.577271 -1.083888 19,000 97 441 -3264
2019-06-18 09:44:16 GMT 49.577946 -1.091655 19,100 97 443 -3264
2019-06-18 09:44:12 GMT 49.577946 -1.091655 19,175 97 443 -3328
2019-06-18 09:44:09 GMT 49.578693 -1.099746 19,850 97 445 -3264
2019-06-18 09:44:05 GMT 49.579857 -1.113182 19,625 97 444 -3264
2019-06-18 09:44:02 GMT 49.580795 -1.124003 19,675 97 447 -3264
2019-06-18 09:43:58 GMT 49.581856 -1.136268 20,150 97 449 -3456
2019-06-18 09:43:55 GMT 49.582741 -1.146290 20,925 97 454 -3328
2019-06-18 09:43:52 GMT 49.583588 -1.155805 20,200 97 451 -3520
2019-06-18 09:43:49 GMT 49.584641 -1.168309 20,500 97 452 -3328
2019-06-18 09:43:45 GMT 49.586288 -1.187391 20,825 97 455 -3392
2019-06-18 09:43:42 GMT 49.586288 -1.187391 21,100 97 457 -3584
2019-06-18 09:43:39 GMT 49.588257 -1.210375 21,100 97 457 -3584
2019-06-18 09:43:36 GMT 49.588257 -1.210375 21,250 97 457 -3584
2019-06-18 09:43:30 GMT 49.589584 -1.225409 21,425 97 461 -3840
2019-06-18 09:43:27 GMT 49.590515 -1.236333 21,750 97 461 -3840
2019-06-18 09:43:24 GMT 49.591324 -1.245720 22,100 97 461 -4544
2019-06-18 09:43:21 GMT 49.592239 -1.256079 22,150 97 461 -4416
2019-06-18 09:43:17 GMT 49.593357 -1.268698 23,450 97 459 -4736
2019-06-18 09:43:14 GMT 49.594208 -1.278100 23,200 97 459 -4800
2019-06-18 09:43:11 GMT 49.594940 -1.286291 22,950 97 460 -4672
2019-06-18 09:43:08 GMT 49.595993 -1.297832 24,050 97 465 -2240
2019-06-18 09:43:04 GMT 49.597359 -1.313460 25,050 106 475 -2048
2019-06-18 09:43:01 GMT 49.597870 -1.319444 23,725 97 460 -4160
2019-06-18 09:42:57 GMT 49.599152 -1.334188 23,975 97 463 -2816
2019-06-18 09:42:51 GMT 49.600758 -1.352951 24,200 97 465 -2176
2019-06-18 09:42:45 GMT 49.602341 -1.372252 24,725 97 466 -1856
2019-06-18 09:42:41 GMT 49.603458 -1.385688 24,650 97 466 -1856
2019-06-18 09:42:38 GMT 49.604233 -1.394541 24,650 97 466 -1856
2019-06-18 09:42:34 GMT 49.605652 -1.411309 25,025 98 468 -1664
2019-06-18 09:42:31 GMT 49.606384 -1.419405 24,950 98 469 -1536
2019-06-18 09:42:28 GMT 49.607040 -1.425773 24,975 99 470 -1472
2019-06-18 09:42:25 GMT 49.608253 -1.437353 24,975 99 470 -1472
2019-06-18 09:42:22 GMT 49.609406 -1.446943 25,075 101 470 -1472
2019-06-18 09:42:19 GMT 49.610489 -1.455614 25,250 102 471 -1472
2019-06-18 09:42:16 GMT 49.612583 -1.470535 25,250 103 472 -1536
2019-06-18 09:42:13 GMT 49.614117 -1.480482 25,350 105 473 -1984
2019-06-18 09:42:10 GMT 49.615356 -1.488142 25,400 104 473 -1920
2019-06-18 09:42:07 GMT 49.616772 -1.496368 25,500 105 472 -2176
2019-06-18 09:42:03 GMT 49.619427 -1.510769 25,775 106 475 -2048
2019-06-18 09:42:00 GMT 49.621033 -1.519149 25,725 106 472 -2304
2019-06-18 09:41:57 GMT 49.623104 -1.529623 25,950 106 475 -2048
2019-06-18 09:41:54 GMT 49.625015 -1.539387 25,950 106 474 -2112
2019-06-18 09:41:51 GMT 49.626389 -1.546543 26,150 106 475 64
2019-06-18 09:41:48 GMT 49.628689 -1.558203 26,350 106 476 -1984
2019-06-18 09:41:44 GMT 49.631607 -1.573213 26,350 106 475 -2048
2019-06-18 09:41:40 GMT 49.634369 -1.587376 26,475 106 477 -1984
2019-06-18 09:41:34 GMT 49.637161 -1.601777 26,600 106 477 -1920
2019-06-18 09:41:31 GMT 49.639442 -1.613357 26,975 106 480 -2240
2019-06-18 09:41:27 GMT 49.641678 -1.624820 26,800 106 479 -1920
2019-06-18 09:41:24 GMT 49.643726 -1.635478 26,875 106 479 -1984
2019-06-18 09:41:21 GMT 49.645615 -1.645347 27,300 106 479 -1024
2019-06-18 09:41:18 GMT 49.648041 -1.657851 27,150 106 480 -2496
2019-06-18 09:41:13 GMT 49.651062 -1.673247 27,450 106 481 -2560
2019-06-18 09:41:10 GMT 49.652618 -1.681354 27,375 106 481 -2496
2019-06-18 09:41:07 GMT 49.657227 -1.705182 27,700 106 479 -768
2019-06-18 09:41:03 GMT 49.657227 -1.705182 27,700 106 479 -1024
2019-06-18 09:40:59 GMT 49.660172 -1.720372 27,875 106 479 -1024
2019-06-18 09:40:54 GMT 49.662579 -1.732722 27,875 106 479 -960
2019-06-18 09:40:51 GMT 49.665070 -1.745597 27,975 106 478 -320
2019-06-18 09:40:48 GMT 49.666626 -1.753548 27,975 106 465 -448
2019-06-18 09:40:45 GMT 49.668274 -1.762077 27,975 106 476 64
2019-06-18 09:40:42 GMT 49.670864 -1.775480 27,975 106 472 0
2019-06-18 09:40:39 GMT 49.671936 -1.781086 27,975 106 469 -192
2019-06-18 09:40:35 GMT 49.674545 -1.794458 28,000 106 471 -128
2019-06-18 09:40:32 GMT 49.676743 -1.805950 28,000 106 467 -832
2019-06-18 09:40:29 GMT 49.678406 -1.814674 28,000 106 466 0
2019-06-18 09:40:26 GMT 49.680550 -1.825660 28,025 106 466 0
2019-06-18 09:40:22 GMT 49.682693 -1.836885 28,050 106 463 -192
2019-06-18 09:40:19 GMT 49.685440 -1.851196 28,050 106 463 -192
2019-06-18 09:40:15 GMT 49.687206 -1.860327 28,050 106 463 -256
2019-06-18 09:40:12 GMT 49.688736 -1.868254 28,050 106 466 -576
2019-06-18 09:40:09 GMT 49.691536 -1.882745 28,175 106 466 -640
2019-06-18 09:40:05 GMT 49.693024 -1.890613 28,400 106 473 -1536
2019-06-18 09:40:02 GMT 49.694885 -1.900189 28,125 106 468 -1024
2019-06-18 09:39:59 GMT 49.696980 -1.911176 28,175 106 468 -1216
2019-06-18 09:39:56 GMT 49.698425 -1.918896 28,400 106 473 -1536
2019-06-18 09:39:53 GMT 49.700661 -1.930476 28,650 106 473 -1600
2019-06-18 09:39:50 GMT 49.701962 -1.937231 28,425 106 472 -1472
2019-06-18 09:39:47 GMT 49.704620 -1.951230 28,525 106 473 -1728
2019-06-18 09:39:43 GMT 49.706524 -1.961208 28,675 106 474 -1920
2019-06-18 09:39:40 GMT 49.708145 -1.969661 28,700 106 474 -2048
2019-06-18 09:39:37 GMT 49.710667 -1.982958 28,775 106 474 -2112
2019-06-18 09:39:34 GMT 49.712265 -1.991344 28,850 106 474 -2112
2019-06-18 09:39:31 GMT 49.714066 -2.000699 28,925 106 474 -2048
2019-06-18 09:39:28 GMT 49.716476 -2.013461 29,075 106 475 -2048
2019-06-18 09:39:23 GMT 49.718948 -2.026544 29,200 106 475 -1920
2019-06-18 09:39:20 GMT 49.720535 -2.034846 29,300 106 477 -1920
2019-06-18 09:39:17 GMT 49.723099 -2.048282 29,400 106 476 -1856
2019-06-18 09:39:14 GMT 49.724716 -2.056684 29,475 106 476 -1920
2019-06-18 09:39:11 GMT 49.726501 -2.065936 29,950 106 477 -1920
2019-06-18 09:39:08 GMT 49.728588 -2.077158 29,725 106 477 -1920
2019-06-18 09:39:05 GMT 49.730267 -2.085918 29,825 106 487 -2368
2019-06-18 09:39:01 GMT 49.734501 -2.108187 30,000 106 480 -1792
2019-06-18 09:38:58 GMT 49.736317 -2.117763 30,175 106 480 -1792
2019-06-18 09:38:55 GMT 49.736317 -2.117763 30,175 106 479 -1856
2019-06-18 09:38:50 GMT 49.739529 -2.134837 30,425 106 480 -1664
2019-06-18 09:38:47 GMT 49.741241 -2.143924 30,475 106 482 -1536
2019-06-18 09:38:44 GMT 49.743027 -2.153393 30,725 106 486 -1728
2019-06-18 09:38:41 GMT 49.746883 -2.173586 30,550 106 484 -1536
2019-06-18 09:38:38 GMT 49.746883 -2.173586 30,650 106 485 -1536
2019-06-18 09:38:35 GMT 49.748886 -2.184127 30,650 106 485 -1664
2019-06-18 09:38:32 GMT 49.750854 -2.194664 30,750 106 487 -2240
2019-06-18 09:38:27 GMT 49.753448 -2.208475 30,900 106 487 -2368
2019-06-18 09:38:24 GMT 49.755753 -2.220612 30,975 106 487 -2496
2019-06-18 09:38:21 GMT 49.757404 -2.229482 33,425 96 481 128
2019-06-18 09:38:18 GMT 49.759689 -2.241500 31,350 106 485 -3392
2019-06-18 09:38:15 GMT 49.761223 -2.249822 31,500 106 484 -3648
2019-06-18 09:38:12 GMT 49.762993 -2.259101 31,750 106 482 -3584
2019-06-18 09:38:09 GMT 49.764946 -2.269568 31,850 106 482 -3520
2019-06-18 09:38:06 GMT 49.767040 -2.280851 32,050 106 479 -3456
2019-06-18 09:38:02 GMT 49.769836 -2.295771 32,200 106 478 -3456
2019-06-18 09:37:59 GMT 49.771420 -2.304085 33,000 104 474 -128
2019-06-18 09:37:56 GMT 49.773605 -2.315666 32,625 106 475 -3136
2019-06-18 09:37:53 GMT 49.775375 -2.325167 32,800 106 472 -2816
2019-06-18 09:37:50 GMT 49.776863 -2.333036 33,050 106 473 -3008
2019-06-18 09:37:46 GMT 49.778915 -2.344135 33,050 106 473 -3008
2019-06-18 09:37:43 GMT 49.781193 -2.356196 33,325 106 472 -2880
2019-06-18 09:37:40 GMT 49.782852 -2.364952 33,425 96 481 128
2019-06-18 09:37:37 GMT 49.787571 -2.390417 33,550 85 486 64
2019-06-18 09:37:33 GMT 49.787571 -2.390417 33,725 105 472 -2112
2019-06-18 09:37:29 GMT 49.789169 -2.398995 33,975 70 489 0
2019-06-18 09:37:26 GMT 49.792927 -2.419739 33,950 105 473 -896
2019-06-18 09:37:23 GMT 49.792927 -2.419739 34,000 98 479 64
2019-06-18 09:37:20 GMT 49.794880 -2.430577 34,000 105 474 -256
2019-06-18 09:37:17 GMT 49.796997 -2.442723 34,000 95 482 128
2019-06-18 09:37:14 GMT 49.798370 -2.450746 34,000 103 476 -64
2019-06-18 09:37:11 GMT 49.799862 -2.460715 34,000 98 479 64
2019-06-18 09:37:08 GMT 49.801300 -2.471562 34,000 100 478 64
2019-06-18 09:37:04 GMT 49.802422 -2.481722 34,000 94 482 64
2019-06-18 09:37:01 GMT 49.803497 -2.494764 33,975 94 482 64
2019-06-18 09:36:57 GMT 49.804367 -2.509003 33,975 93 482 128
2019-06-18 09:36:53 GMT 49.804703 -2.519432 33,975 91 484 64
2019-06-18 09:36:50 GMT 49.804825 -2.529313 33,975 89 486 0
2019-06-18 09:36:47 GMT 49.804733 -2.542684 34,000 83 487 128
2019-06-18 09:36:44 GMT 49.804413 -2.552297 34,000 86 485 64
2019-06-18 09:36:41 GMT 49.803772 -2.563971 33,975 81 487 0
2019-06-18 09:36:34 GMT 49.801537 -2.588988 33,975 79 486 64
2019-06-18 09:36:30 GMT 49.800018 -2.601013 33,975 77 487 64
2019-06-18 09:36:27 GMT 49.798977 -2.608139 34,025 62 490 -64
2019-06-18 09:36:23 GMT 49.796173 -2.624359 33,975 74 488 64
2019-06-18 09:36:19 GMT 49.793762 -2.636348 34,075 53 494 -384
2019-06-18 09:36:16 GMT 49.790600 -2.650006 34,000 57 491 -256
2019-06-18 09:36:13 GMT 49.785187 -2.669822 34,025 67 489 -64
2019-06-18 09:36:10 GMT 49.785187 -2.669822 34,000 61 491 -128
2019-06-18 09:36:07 GMT 49.783150 -2.676433 34,025 62 490 -64
2019-06-18 09:36:02 GMT 49.777954 -2.691867 34,025 60 491 -128
2019-06-18 09:35:59 GMT 49.774490 -2.701078 34,050 43 500 -1472
2019-06-18 09:35:56 GMT 49.771046 -2.709689 34,050 54 493 -384
2019-06-18 09:35:53 GMT 49.767227 -2.718597 34,150 44 499 -1216
2019-06-18 09:35:50 GMT 49.763226 -2.727282 34,100 50 496 -704
2019-06-18 09:35:46 GMT 49.757629 -2.738631 34,175 35 504 -2048
2019-06-18 09:35:41 GMT 49.750565 -2.751630 34,175 47 498 -1024
2019-06-18 09:35:35 GMT 49.740875 -2.767543 34,250 44 499 -1344
2019-06-18 09:35:32 GMT 49.736435 -2.774120 34,300 42 500 -1536
2019-06-18 09:35:29 GMT 49.724167 -2.790455 35,150 332 484 -640
2019-06-18 09:35:25 GMT 49.724167 -2.790455 34,550 36 503 -2048
2019-06-18 09:35:22 GMT 49.718628 -2.796960 34,600 35 504 -2048
2019-06-18 09:35:19 GMT 49.710854 -2.805374 34,700 34 503 -2048
2019-06-18 09:35:15 GMT 49.705269 -2.810867 35,975 11 504 -1024
2019-06-18 09:35:11 GMT 49.695145 -2.819945 34,975 27 505 -832
2019-06-18 09:35:08 GMT 49.688881 -2.825119 35,000 26 505 -512
2019-06-18 09:35:02 GMT 49.675964 -2.834473 35,050 19 505 -256
2019-06-18 09:34:58 GMT 49.669285 -2.838778 35,050 21 505 -192
2019-06-18 09:34:54 GMT 49.660809 -2.843603 35,525 1 500 -1984
2019-06-18 09:34:51 GMT 49.652069 -2.847989 35,075 16 505 -448
2019-06-18 09:34:47 GMT 49.645935 -2.850735 35,100 14 505 -704
2019-06-18 09:34:43 GMT 49.637100 -2.854132 35,150 11 504 -1024
2019-06-18 09:34:40 GMT 49.622498 -2.858375 35,225 359 498 -1600
2019-06-18 09:34:37 GMT 49.622498 -2.858375 35,625 359 498 -1600
2019-06-18 09:34:34 GMT 49.615494 -2.859842 35,950 352 494 -320
2019-06-18 09:34:31 GMT 49.605366 -2.861196 35,525 1 500 -2048
2019-06-18 09:34:27 GMT 49.600021 -2.861577 35,600 1 500 -1984
2019-06-18 09:34:22 GMT 49.587158 -2.861649 35,775 358 497 -1280
2019-06-18 09:34:18 GMT 49.578690 -2.861071 38,000 300 455 -960
2019-06-18 09:34:15 GMT 49.571430 -2.860157 35,975 352 494 -384
2019-06-18 09:34:12 GMT 49.563004 -2.858598 35,975 352 494 -256
2019-06-18 09:34:08 GMT 49.555138 -2.856742 35,975 340 488 -128
2019-06-18 09:34:05 GMT 49.542114 -2.852687 36,000 346 491 0
2019-06-18 09:33:59 GMT 49.535660 -2.850157 36,000 344 489 -64
2019-06-18 09:33:56 GMT 49.530350 -2.847844 36,000 344 490 0
2019-06-18 09:33:52 GMT 49.519569 -2.842415 36,050 334 485 -320
2019-06-18 09:33:48 GMT 49.513412 -2.838954 36,025 336 486 -256
2019-06-18 09:33:44 GMT 49.503696 -2.832691 36,025 336 486 -256
2019-06-18 09:33:41 GMT 49.497459 -2.828237 36,150 301 458 -1728
2019-06-18 09:33:38 GMT 49.491451 -2.823635 36,075 330 483 -768
2019-06-18 09:33:34 GMT 49.483864 -2.817177 36,125 320 476 -1920
2019-06-18 09:33:29 GMT 49.474461 -2.808343 36,200 327 481 -1216
2019-06-18 09:33:23 GMT 49.463055 -2.796317 36,300 320 476 -1920
2019-06-18 09:33:20 GMT 49.457657 -2.790021 36,475 318 476 -2240
2019-06-18 09:33:17 GMT 49.447586 -2.777084 36,525 314 472 -2624
2019-06-18 09:33:14 GMT 49.447586 -2.777084 36,675 317 475 -2432
2019-06-18 09:33:11 GMT 49.443504 -2.771301 36,700 316 474 -2560
2019-06-18 09:33:08 GMT 49.437973 -2.763134 36,850 315 473 -2560
2019-06-18 09:33:05 GMT 49.432983 -2.755183 36,825 314 472 -2624
2019-06-18 09:33:01 GMT 49.422226 -2.735877 37,175 309 468 -2944
2019-06-18 09:32:57 GMT 49.422226 -2.735877 37,200 309 467 -2944
2019-06-18 09:32:54 GMT 49.418320 -2.727934 37,850 306 464 -2752
2019-06-18 09:32:51 GMT 49.411289 -2.712322 37,625 303 459 -2240
2019-06-18 09:32:48 GMT 49.411289 -2.712322 37,850 302 459 -1984
2019-06-18 09:32:45 GMT 49.408081 -2.704609 37,825 302 458 -1792
2019-06-18 09:32:42 GMT 49.405422 -2.697794 37,850 301 457 -1472
2019-06-18 09:32:39 GMT 49.401443 -2.687284 37,925 300 456 -1088
2019-06-18 09:32:36 GMT 49.398514 -2.678903 38,000 298 454 -576
2019-06-18 09:32:33 GMT 49.392838 -2.660945 38,000 291 449 64
2019-06-18 09:32:27 GMT 49.389969 -2.650018 38,000 291 449 64
2019-06-18 09:32:24 GMT 49.388260 -2.642705 38,000 289 449 64
2019-06-18 09:32:20 GMT 49.386337 -2.632816 38,000 285 445 -64
2019-06-18 09:32:17 GMT 49.384151 -2.618866 38,000 282 444 0
2019-06-18 09:32:13 GMT 49.382538 -2.606436 38,000 282 443 0
2019-06-18 09:32:10 GMT 49.381485 -2.598407 38,000 281 443 0
2019-06-18 09:32:07 GMT 49.380661 -2.591928 38,000 282 443 0
2019-06-18 09:32:03 GMT 49.378841 -2.577378 38,000 282 443 0
2019-06-18 09:32:00 GMT 49.377865 -2.569644 38,000 282 443 0
2019-06-18 09:31:56 GMT 49.375862 -2.554321 38,000 282 443 0
2019-06-18 09:31:53 GMT 49.373535 -2.536252 38,000 282 444 0
2019-06-18 09:31:49 GMT 49.371918 -2.523827 38,000 282 444 0
2019-06-18 09:31:45 GMT 49.371918 -2.523827 38,000 282 444 0
2019-06-18 09:31:42 GMT 49.370316 -2.511855 38,000 282 444 -64
2019-06-18 09:31:39 GMT 49.369534 -2.505533 38,000 282 444 0
2019-06-18 09:31:36 GMT 49.368275 -2.496209 38,000 282 445 64
2019-06-18 09:31:33 GMT 49.367065 -2.486813 38,000 282 444 0
2019-06-18 09:31:30 GMT 49.365856 -2.477489 38,000 282 444 0
2019-06-18 09:31:27 GMT 49.362808 -2.453684 38,000 282 445 64
2019-06-18 09:31:23 GMT 49.362808 -2.453684 38,000 282 444 0
2019-06-18 09:31:18 GMT 49.361153 -2.440700 38,000 282 445 0
2019-06-18 09:31:15 GMT 49.359833 -2.430655 38,000 282 445 0
2019-06-18 09:31:11 GMT 49.357269 -2.410795 38,000 282 445 64
2019-06-18 09:31:08 GMT 49.357269 -2.410795 38,000 282 445 64
2019-06-18 09:31:05 GMT 49.355846 -2.399934 38,000 282 445 0
2019-06-18 09:31:02 GMT 49.354637 -2.390611 38,025 282 445 -64
2019-06-18 09:30:57 GMT 49.352821 -2.376805 38,025 282 448 -64
2019-06-18 09:30:54 GMT 49.351730 -2.368188 38,000 282 445 -64
2019-06-18 09:30:50 GMT 49.349796 -2.353604 38,000 282 445 -64
2019-06-18 09:30:47 GMT 49.348724 -2.345581 38,025 282 445 -64
2019-06-18 09:30:42 GMT 49.346237 -2.326848 38,000 282 445 64
2019-06-18 09:30:39 GMT 49.345421 -2.320573 38,000 282 446 0
2019-06-18 09:30:36 GMT 49.344269 -2.311707 38,000 282 446 64
2019-06-18 09:30:33 GMT 49.342857 -2.300985 38,000 282 446 0
2019-06-18 09:30:30 GMT 49.341972 -2.294191 38,000 282 447 64
2019-06-18 09:30:27 GMT 49.340763 -2.285012 38,000 282 447 64
2019-06-18 09:30:24 GMT 49.337318 -2.258775 38,000 282 448 0
2019-06-18 09:30:19 GMT 49.337318 -2.258775 38,000 282 447 0
2019-06-18 09:30:16 GMT 49.336109 -2.249595 38,000 282 447 0
2019-06-18 09:30:13 GMT 49.334747 -2.239309 38,000 282 447 0
2019-06-18 09:30:09 GMT 49.332989 -2.225599 38,000 282 447 0
2019-06-18 09:30:06 GMT 49.331966 -2.218010 38,000 282 447 0
2019-06-18 09:30:03 GMT 49.330894 -2.209842 38,000 282 446 0
2019-06-18 09:29:59 GMT 49.329208 -2.197054 38,000 282 446 0
2019-06-18 09:29:56 GMT 49.327869 -2.186930 38,000 282 444 0
2019-06-18 09:29:53 GMT 49.326599 -2.177265 38,000 282 446 0
2019-06-18 09:29:50 GMT 49.325317 -2.167757 38,000 282 445 0
2019-06-18 09:29:46 GMT 49.323772 -2.156139 38,000 282 445 0
2019-06-18 09:29:43 GMT 49.322796 -2.148622 38,000 282 445 0
2019-06-18 09:29:40 GMT 49.319687 -2.125150 38,000 282 445 0
2019-06-18 09:29:37 GMT 49.319687 -2.125150 38,000 282 444 0
2019-06-18 09:29:34 GMT 49.318466 -2.116169 38,000 282 444 0
2019-06-18 09:29:31 GMT 49.317673 -2.110220 38,000 282 444 0
2019-06-18 09:29:28 GMT 49.315998 -2.097594 38,000 282 444 0
2019-06-18 09:29:25 GMT 49.314739 -2.088197 38,000 282 444 0
2019-06-18 09:29:21 GMT 49.313110 -2.076127 38,000 282 444 0
2019-06-18 09:29:18 GMT 49.312500 -2.071557 38,000 282 444 0
2019-06-18 09:29:14 GMT 49.309620 -2.050251 38,000 282 444 0
2019-06-18 09:29:11 GMT 49.307693 -2.035710 38,000 282 444 0
2019-06-18 09:29:07 GMT 49.307693 -2.035710 38,000 282 444 64
2019-06-18 09:29:03 GMT 49.306175 -2.024592 38,000 282 441 0
2019-06-18 09:29:00 GMT 49.304764 -2.014231 38,000 282 444 64
2019-06-18 09:28:57 GMT 49.303528 -2.005005 38,000 282 444 0
2019-06-18 09:28:54 GMT 49.301891 -1.992501 38,000 282 441 0
2019-06-18 09:28:48 GMT 49.300095 -1.979088 38,000 282 443 0
2019-06-18 09:28:44 GMT 49.298264 -1.965496 38,000 282 442 0
2019-06-18 09:28:41 GMT 49.297028 -1.956059 38,000 282 442 0
2019-06-18 09:28:37 GMT 49.295563 -1.945425 38,000 282 441 0
2019-06-18 09:28:33 GMT 49.294006 -1.933875 38,000 282 441 0
2019-06-18 09:28:30 GMT 49.292404 -1.922044 38,000 282 441 0
2019-06-18 09:28:27 GMT 49.291370 -1.914440 38,000 282 441 0
2019-06-18 09:28:23 GMT 49.288239 -1.891198 38,000 282 444 0
2019-06-18 09:28:19 GMT 49.288239 -1.891198 38,000 282 441 0
2019-06-18 09:28:16 GMT 49.286903 -1.881264 38,000 282 440 -64
2019-06-18 09:28:13 GMT 49.285263 -1.869014 38,000 282 440 0
2019-06-18 09:28:09 GMT 49.283783 -1.858135 38,000 282 440 0
2019-06-18 09:28:06 GMT 49.282200 -1.846498 38,000 282 440 0
2019-06-18 09:28:02 GMT 49.281036 -1.837752 38,000 282 440 0
2019-06-18 09:27:59 GMT 49.279724 -1.828238 38,000 282 441 0
2019-06-18 09:27:56 GMT 49.278709 -1.820767 38,000 282 441 0
2019-06-18 09:27:53 GMT 49.276749 -1.806476 38,000 282 441 0
2019-06-18 09:27:50 GMT 49.275879 -1.799856 38,000 282 441 0
2019-06-18 09:27:47 GMT 49.274986 -1.793374 38,000 282 442 0
2019-06-18 09:27:44 GMT 49.273453 -1.782320 38,000 282 442 0
2019-06-18 09:27:41 GMT 49.272377 -1.774437 38,000 282 442 0
2019-06-18 09:27:38 GMT 49.271027 -1.764318 38,000 282 442 0
2019-06-18 09:27:35 GMT 49.270020 -1.756897 38,000 282 448 64
2019-06-18 09:27:31 GMT 49.267956 -1.742056 38,000 282 443 0
2019-06-18 09:27:28 GMT 49.266861 -1.734009 38,000 282 443 0
2019-06-18 09:27:25 GMT 49.265583 -1.724709 38,000 282 443 0
2019-06-18 09:27:22 GMT 49.263115 -1.706567 38,000 282 443 0
2019-06-18 09:27:19 GMT 49.263115 -1.706567 38,000 282 443 0
2019-06-18 09:27:16 GMT 49.260132 -1.684922 38,000 282 444 0
2019-06-18 09:27:13 GMT 49.260132 -1.684922 38,000 282 444 0
2019-06-18 09:27:10 GMT 49.258942 -1.676260 38,000 282 444 0
2019-06-18 09:27:06 GMT 49.257065 -1.662527 38,000 282 444 -64
2019-06-18 09:27:03 GMT 49.256180 -1.656117 38,000 282 444 0
2019-06-18 09:26:59 GMT 49.254642 -1.644986 38,000 282 444 0
2019-06-18 09:26:55 GMT 49.253036 -1.633371 38,000 282 444 0
2019-06-18 09:26:52 GMT 49.251476 -1.621712 38,000 282 445 -64
2019-06-18 09:26:49 GMT 49.250610 -1.615694 38,025 282 445 -64
2019-06-18 09:26:46 GMT 49.248917 -1.603209 38,000 282 445 -64
2019-06-18 09:26:43 GMT 49.247986 -1.596704 38,000 282 445 -64
2019-06-18 09:26:39 GMT 49.246403 -1.585139 38,000 283 446 0
2019-06-18 09:26:34 GMT 49.243561 -1.564777 38,000 283 446 0
2019-06-18 09:26:31 GMT 49.242462 -1.556749 38,000 282 449 0
2019-06-18 09:26:27 GMT 49.238800 -1.530339 38,000 282 447 64
2019-06-18 09:26:23 GMT 49.237976 -1.524494 37,875 282 449 0
2019-06-18 09:26:20 GMT 49.237976 -1.524494 38,000 282 448 0
2019-06-18 09:26:14 GMT 49.235092 -1.503930 38,000 282 449 0
2019-06-18 09:26:11 GMT 49.234020 -1.496092 38,000 283 448 0
2019-06-18 09:26:07 GMT 49.230881 -1.473436 38,000 282 448 64
2019-06-18 09:26:03 GMT 49.230881 -1.473436 38,000 282 449 0
2019-06-18 09:26:00 GMT 49.229130 -1.460676 38,000 282 448 64
2019-06-18 09:25:57 GMT 49.227676 -1.450407 37,975 283 448 64
2019-06-18 09:25:54 GMT 49.226711 -1.443257 37,975 283 448 64
2019-06-18 09:25:51 GMT 49.225780 -1.436824 37,975 283 448 0
2019-06-18 09:25:48 GMT 49.224289 -1.425982 38,000 283 447 128
2019-06-18 09:25:45 GMT 49.222473 -1.413044 37,950 283 447 128
2019-06-18 09:25:42 GMT 49.221542 -1.406539 37,975 283 447 128
2019-06-18 09:25:38 GMT 49.219940 -1.394912 37,975 283 446 256
2019-06-18 09:25:33 GMT 49.217728 -1.379218 37,925 283 446 704
2019-06-18 09:25:30 GMT 49.216328 -1.368954 37,875 283 446 832
2019-06-18 09:25:27 GMT 49.215454 -1.362868 37,850 283 446 896
2019-06-18 09:25:24 GMT 49.214188 -1.353704 37,800 283 446 960
2019-06-18 09:25:21 GMT 49.212753 -1.343360 37,750 283 447 832
2019-06-18 09:25:15 GMT 49.209721 -1.321756 37,650 283 447 896
2019-06-18 09:25:12 GMT 49.208359 -1.312232 37,625 283 447 896
2019-06-18 09:25:09 GMT 49.207306 -1.304486 37,575 283 447 896
2019-06-18 09:25:06 GMT 49.205994 -1.295447 37,525 283 447 832
2019-06-18 09:25:03 GMT 49.204273 -1.282943 37,450 283 447 832
2019-06-18 09:24:59 GMT 49.202591 -1.271034 37,450 283 447 832
2019-06-18 09:24:53 GMT 49.200314 -1.255188 37,250 283 448 832
2019-06-18 09:24:50 GMT 49.199432 -1.248755 37,350 283 448 768
2019-06-18 09:24:47 GMT 49.197941 -1.238492 37,250 283 448 768
2019-06-18 09:24:44 GMT 49.196079 -1.225337 37,225 283 448 768
2019-06-18 09:24:39 GMT 49.194305 -1.212722 37,150 283 448 768
2019-06-18 09:24:36 GMT 49.192978 -1.203496 37,100 283 448 768
2019-06-18 09:24:33 GMT 49.191742 -1.194622 37,100 283 448 704
2019-06-18 09:24:29 GMT 49.190025 -1.182693 37,075 283 448 704
2019-06-18 09:24:26 GMT 49.188400 -1.171241 37,025 283 446 704
2019-06-18 09:24:20 GMT 49.186020 -1.154480 36,925 283 446 704
2019-06-18 09:24:17 GMT 49.184582 -1.144457 36,925 283 447 640
2019-06-18 09:24:14 GMT 49.183273 -1.135183 36,875 283 447 640
2019-06-18 09:24:10 GMT 49.181168 -1.120465 36,675 283 445 768
2019-06-18 09:24:04 GMT 49.177185 -1.092717 36,475 283 445 832
2019-06-18 09:23:57 GMT 49.173660 -1.068209 36,400 283 445 832
2019-06-18 09:23:52 GMT 49.173660 -1.068209 36,625 283 445 832
2019-06-18 09:23:49 GMT 49.172379 -1.059124 36,550 283 444 896
2019-06-18 09:23:46 GMT 49.170914 -1.049053 36,275 283 444 832
2019-06-18 09:23:43 GMT 49.169815 -1.041307 36,475 283 444 896
2019-06-18 09:23:40 GMT 49.168522 -1.032353 36,475 283 444 896
2019-06-18 09:23:36 GMT 49.166656 -1.019334 36,375 283 444 960
2019-06-18 09:23:33 GMT 49.165260 -1.009658 36,050 283 445 1280
2019-06-18 09:23:30 GMT 49.163864 -0.999900 36,275 283 444 1088
2019-06-18 09:23:25 GMT 49.161816 -0.985878 35,825 283 445 1216
2019-06-18 09:23:22 GMT 49.159954 -0.972796 36,100 283 445 1280
2019-06-18 09:23:19 GMT 49.159256 -0.968026 35,875 283 445 1280
2019-06-18 09:23:16 GMT 49.157768 -0.957690 35,800 283 446 1216
2019-06-18 09:23:13 GMT 49.156464 -0.948655 34,825 283 444 1088
2019-06-18 09:23:10 GMT 49.155350 -0.940669 35,875 283 446 1216
2019-06-18 09:23:07 GMT 49.154091 -0.931814 35,825 283 447 1088
2019-06-18 09:23:04 GMT 49.150970 -0.909986 35,050 283 447 1088
2019-06-18 09:23:01 GMT 49.150970 -0.909986 35,700 283 446 1088
2019-06-18 09:22:56 GMT 49.148922 -0.895964 35,425 283 446 1216
2019-06-18 09:22:53 GMT 49.147842 -0.888554 35,425 283 446 1216
2019-06-18 09:22:50 GMT 49.144966 -0.868860 35,475 283 447 1088
2019-06-18 09:22:47 GMT 49.144966 -0.868860 35,325 283 447 1088
2019-06-18 09:22:44 GMT 49.143814 -0.860877 35,050 283 447 1088
2019-06-18 09:22:41 GMT 49.142403 -0.850934 35,100 283 447 960
2019-06-18 09:22:38 GMT 49.141052 -0.841611 35,300 283 447 1088
2019-06-18 09:22:34 GMT 49.139328 -0.829749 35,025 283 446 832
2019-06-18 09:22:31 GMT 49.137562 -0.817325 34,675 283 446 832
2019-06-18 09:22:28 GMT 49.135098 -0.800701 34,900 283 445 704
2019-06-18 09:22:25 GMT 49.135098 -0.800701 35,050 283 446 896
2019-06-18 09:22:18 GMT 49.131744 -0.777355 34,925 283 445 704
2019-06-18 09:22:15 GMT 49.130859 -0.771508 34,950 283 446 768
2019-06-18 09:22:12 GMT 49.129715 -0.763479 34,900 283 445 768
2019-06-18 09:22:09 GMT 49.128067 -0.752423 34,825 283 445 704
2019-06-18 09:22:06 GMT 49.126904 -0.744468 34,825 283 444 768
2019-06-18 09:22:02 GMT 49.125000 -0.731154 34,775 283 444 832
2019-06-18 09:21:57 GMT 49.122940 -0.717140 34,650 283 444 1088
2019-06-18 09:21:53 GMT 49.121178 -0.704932 34,650 283 444 1024
2019-06-18 09:21:49 GMT 49.118591 -0.687420 34,400 283 444 1088
2019-06-18 09:21:46 GMT 49.118103 -0.684116 34,475 283 443 1088
2019-06-18 09:21:43 GMT 49.116074 -0.670166 34,375 283 444 1088
2019-06-18 09:21:37 GMT 49.113968 -0.655729 34,350 283 444 1088
2019-06-18 09:21:34 GMT 49.112595 -0.646503 34,325 283 444 1088
2019-06-18 09:21:31 GMT 49.111267 -0.637348 34,125 283 444 1088
2019-06-18 09:21:25 GMT 49.108429 -0.618122 34,125 283 444 1088
2019-06-18 09:21:20 GMT 49.105583 -0.598899 34,025 283 444 1088
2019-06-18 09:21:15 GMT 49.103439 -0.584529 33,925 283 444 1088
2019-06-18 09:21:12 GMT 49.102509 -0.578228 33,875 283 444 1088
2019-06-18 09:21:09 GMT 49.101391 -0.570422 33,850 283 444 1088
2019-06-18 09:21:06 GMT 49.099869 -0.560162 33,300 283 446 1280
2019-06-18 09:21:03 GMT 49.097992 -0.547626 33,700 283 445 1152
2019-06-18 09:21:00 GMT 49.097351 -0.543049 33,525 283 445 1152
2019-06-18 09:20:56 GMT 49.095566 -0.531076 33,475 283 445 1216
2019-06-18 09:20:52 GMT 49.093479 -0.517080 33,500 283 445 1216
2019-06-18 09:20:49 GMT 49.092133 -0.508118 33,350 283 446 1280
2019-06-18 09:20:46 GMT 49.090347 -0.495723 33,375 283 446 1216
2019-06-18 09:20:42 GMT 49.089020 -0.486849 33,300 283 448 1344
2019-06-18 09:20:39 GMT 49.087704 -0.477833 33,050 277 448 1152
2019-06-18 09:20:35 GMT 49.085796 -0.464895 33,150 283 448 1344
2019-06-18 09:20:32 GMT 49.084774 -0.458173 33,050 283 449 1344
2019-06-18 09:20:29 GMT 49.081192 -0.433960 32,925 283 448 1344
2019-06-18 09:20:22 GMT 49.079979 -0.425865 32,600 283 449 1216
2019-06-18 09:20:19 GMT 49.074554 -0.389451 32,700 283 450 1152
2019-06-18 09:20:12 GMT 49.074554 -0.389451 32,650 283 450 1088
2019-06-18 09:20:08 GMT 49.073135 -0.379944 32,025 284 449 1088
2019-06-18 09:20:03 GMT 49.070759 -0.364139 32,400 283 450 1024
2019-06-18 09:20:00 GMT 49.070061 -0.359369 32,475 283 450 1024
2019-06-18 09:19:57 GMT 49.068008 -0.345576 32,400 283 450 1024
2019-06-18 09:19:51 GMT 49.066013 -0.331975 31,875 283 450 1024
2019-06-18 09:19:48 GMT 49.064301 -0.320646 32,250 283 450 1024
2019-06-18 09:19:45 GMT 49.062927 -0.311420 32,025 283 450 1024
2019-06-18 09:19:39 GMT 49.057632 -0.276248 32,025 284 449 1088
2019-06-18 09:19:34 GMT 49.057632 -0.276248 32,025 283 449 1088
2019-06-18 09:19:30 GMT 49.055832 -0.264728 31,525 284 449 1088
2019-06-18 09:19:27 GMT 49.054653 -0.257167 31,900 284 449 1088
2019-06-18 09:19:24 GMT 49.053211 -0.247626 31,875 283 450 1088
2019-06-18 09:19:21 GMT 49.051113 -0.233459 31,700 282 449 1152
2019-06-18 09:19:17 GMT 49.050247 -0.226980 31,725 282 450 1152
2019-06-18 09:19:14 GMT 49.048695 -0.215390 31,450 278 449 1152
2019-06-18 09:19:10 GMT 49.047318 -0.204092 31,625 278 449 1152
2019-06-18 09:19:07 GMT 49.046173 -0.194373 31,525 280 448 1152
2019-06-18 09:19:02 GMT 49.044479 -0.178176 31,400 275 448 1088
2019-06-18 09:18:59 GMT 49.043713 -0.170288 31,350 278 448 1152
2019-06-18 09:18:56 GMT 49.042969 -0.161542 31,325 277 449 1152
2019-06-18 09:18:53 GMT 49.042084 -0.150050 31,225 274 449 1024
2019-06-18 09:18:47 GMT 49.040642 -0.126632 31,125 275 448 1024
2019-06-18 09:18:42 GMT 49.040085 -0.115356 31,050 275 449 1152
2019-06-18 09:18:36 GMT 49.038528 -0.081412 30,350 275 449 896
2019-06-18 09:18:31 GMT 49.038528 -0.081412 30,800 275 449 896
2019-06-18 09:18:28 GMT 49.038082 -0.071556 30,850 275 449 896
2019-06-18 09:18:25 GMT 49.036880 -0.046340 30,725 275 448 896
2019-06-18 09:18:20 GMT 49.036880 -0.046340 30,750 275 448 896
2019-06-18 09:18:15 GMT 49.035553 -0.017465 30,525 274 448 960
2019-06-18 09:18:11 GMT 49.035553 -0.017465 30,575 274 448 1024
2019-06-18 09:18:08 GMT 49.034637 0.002024 30,500 274 448 1024
2019-06-18 09:18:01 GMT 49.034088 0.013662 30,325 275 449 1088
2019-06-18 09:17:57 GMT 49.033127 0.034227 30,300 275 449 1152
2019-06-18 09:17:49 GMT 49.032448 0.049149 30,200 275 450 1152
2019-06-18 09:17:44 GMT 49.031658 0.065629 30,100 275 450 1152
2019-06-18 09:17:37 GMT 49.030632 0.086951 29,975 275 451 1216
2019-06-18 09:17:34 GMT 49.030060 0.098877 29,875 275 451 1216
2019-06-18 09:17:31 GMT 49.029648 0.108173 29,825 275 451 1280
2019-06-18 09:17:26 GMT 49.028915 0.122962 29,575 275 452 1280
2019-06-18 09:17:23 GMT 49.028492 0.131908 29,650 275 453 1280
2019-06-18 09:17:19 GMT 49.027187 0.158434 29,525 275 454 704
2019-06-18 09:17:15 GMT 49.027187 0.158434 29,475 275 453 1280
2019-06-18 09:17:12 GMT 49.026722 0.168481 29,425 275 454 1216
2019-06-18 09:17:08 GMT 49.026169 0.180218 29,350 275 454 1152
2019-06-18 09:17:05 GMT 49.025650 0.190598 29,275 275 454 1024
2019-06-18 09:17:02 GMT 49.025185 0.200284 29,250 275 454 704
2019-06-18 09:16:59 GMT 49.024628 0.211848 29,175 275 449 704
2019-06-18 09:16:54 GMT 49.024063 0.223600 29,125 275 443 768
2019-06-18 09:16:51 GMT 49.023605 0.232896 29,125 275 443 768
2019-06-18 09:16:48 GMT 49.023102 0.243671 29,000 275 453 576
2019-06-18 09:16:44 GMT 49.022488 0.256589 28,825 275 451 704
2019-06-18 09:16:41 GMT 49.022003 0.265785 29,025 275 450 640
2019-06-18 09:16:38 GMT 49.021507 0.275815 28,975 275 451 640
2019-06-18 09:16:34 GMT 49.020905 0.288532 28,950 275 451 640
2019-06-18 09:16:30 GMT 49.020344 0.299739 28,725 275 447 1024
2019-06-18 09:16:26 GMT 49.019459 0.318242 28,825 275 448 768
2019-06-18 09:16:23 GMT 49.018993 0.327566 28,750 275 449 704
2019-06-18 09:16:19 GMT 49.018616 0.335717 28,775 275 449 704
2019-06-18 09:16:16 GMT 49.017693 0.354165 28,300 275 446 768
2019-06-18 09:16:13 GMT 49.017693 0.354165 28,650 275 448 832
2019-06-18 09:16:09 GMT 49.017014 0.367549 28,650 275 447 896
2019-06-18 09:16:05 GMT 49.016479 0.378884 28,475 275 447 960
2019-06-18 09:16:02 GMT 49.016014 0.388280 28,500 275 447 960
2019-06-18 09:15:59 GMT 49.015362 0.400640 28,475 275 447 832
2019-06-18 09:15:55 GMT 49.014664 0.414589 27,900 275 444 704
2019-06-18 09:15:52 GMT 49.014431 0.419287 28,375 275 447 1024
2019-06-18 09:15:49 GMT 49.013992 0.428678 28,275 275 447 960
2019-06-18 09:15:42 GMT 49.012848 0.451355 28,175 275 447 896
2019-06-18 09:15:39 GMT 49.012524 0.457740 28,075 275 447 896
2019-06-18 09:15:34 GMT 49.011593 0.475809 27,925 275 444 704
2019-06-18 09:15:31 GMT 49.011127 0.484410 28,075 275 447 832
2019-06-18 09:15:27 GMT 49.010288 0.501034 28,000 275 445 704
2019-06-18 09:15:21 GMT 49.009415 0.518329 27,925 275 445 768
2019-06-18 09:15:18 GMT 49.009033 0.526043 27,875 275 442 896
2019-06-18 09:15:13 GMT 49.008102 0.543679 27,850 275 444 704
2019-06-18 09:15:10 GMT 49.007774 0.550039 27,725 275 443 768
2019-06-18 09:15:06 GMT 49.007076 0.564133 27,750 275 443 768
2019-06-18 09:15:02 GMT 49.006210 0.580374 27,675 275 442 832
2019-06-18 09:14:55 GMT 49.005112 0.601713 27,475 275 441 960
2019-06-18 09:14:51 GMT 49.004471 0.614389 27,525 275 441 960
2019-06-18 09:14:48 GMT 49.003967 0.624108 27,400 275 431 960
2019-06-18 09:14:43 GMT 49.003490 0.633521 27,425 275 440 960
2019-06-18 09:14:39 GMT 49.002686 0.648898 27,275 275 439 896
2019-06-18 09:14:35 GMT 49.002048 0.661348 27,225 275 439 896
2019-06-18 09:14:29 GMT 49.001072 0.679562 27,125 275 438 960
2019-06-18 09:14:24 GMT 49.000278 0.694813 26,900 275 438 896
2019-06-18 09:14:20 GMT 48.999535 0.708618 26,975 275 437 896
2019-06-18 09:14:14 GMT 48.998474 0.728478 26,950 275 436 960
2019-06-18 09:14:11 GMT 48.998138 0.734783 26,900 275 436 960
2019-06-18 09:14:08 GMT 48.997814 0.741216 26,875 275 437 896
2019-06-18 09:14:03 GMT 48.996826 0.759324 26,750 275 436 960
2019-06-18 09:13:59 GMT 48.995682 0.781227 26,675 275 435 896
2019-06-18 09:13:56 GMT 48.995113 0.791955 26,675 275 428 896
2019-06-18 09:13:52 GMT 48.995113 0.791955 26,625 275 435 896
2019-06-18 09:13:49 GMT 48.994415 0.804821 26,525 275 434 896
2019-06-18 09:13:45 GMT 48.993996 0.812771 26,500 275 434 960
2019-06-18 09:13:41 GMT 48.993164 0.828693 26,425 275 433 960
2019-06-18 09:13:38 GMT 48.992844 0.834327 26,325 275 433 960
2019-06-18 09:13:34 GMT 48.991993 0.850284 26,225 275 432 960
2019-06-18 09:13:31 GMT 48.991669 0.855922 26,225 275 432 960
2019-06-18 09:13:28 GMT 48.991196 0.864892 26,200 275 432 960
2019-06-18 09:13:24 GMT 48.990509 0.877357 26,175 275 432 960
2019-06-18 09:13:21 GMT 48.989914 0.888062 26,125 275 431 960
2019-06-18 09:13:15 GMT 48.989044 0.903978 26,025 275 430 1024
2019-06-18 09:13:10 GMT 48.988129 0.920880 25,925 275 430 1088
2019-06-18 09:13:06 GMT 48.987579 0.930739 25,900 275 428 896
2019-06-18 09:13:03 GMT 48.986938 0.942500 25,800 275 429 960
2019-06-18 09:13:00 GMT 48.986343 0.952994 25,750 275 428 896
2019-06-18 09:12:57 GMT 48.985886 0.960881 25,750 275 426 960
2019-06-18 09:12:52 GMT 48.985012 0.976699 25,625 275 427 896
2019-06-18 09:12:49 GMT 48.984592 0.984794 25,600 275 426 896
2019-06-18 09:12:45 GMT 48.984173 0.992311 25,400 275 426 960
2019-06-18 09:12:40 GMT 48.983093 1.011376 25,425 275 425 960
2019-06-18 09:12:35 GMT 48.982498 1.023067 25,425 275 425 896
2019-06-18 09:12:32 GMT 48.981949 1.033067 25,350 275 424 1024
2019-06-18 09:12:27 GMT 48.980988 1.049828 25,250 275 423 1088
2019-06-18 09:12:24 GMT 48.980171 1.064445 25,000 275 419 1280
2019-06-18 09:12:21 GMT 48.980171 1.064445 25,075 275 422 1216
2019-06-18 09:12:18 GMT 48.979008 1.085406 25,025 275 421 1344
2019-06-18 09:12:14 GMT 48.978027 1.102536 25,000 275 419 1280
2019-06-18 09:12:10 GMT 48.978027 1.102536 24,875 275 422 1280
2019-06-18 09:12:06 GMT 48.977646 1.109830 24,825 275 421 1344
2019-06-18 09:12:03 GMT 48.976677 1.126677 24,400 275 419 1280
2019-06-18 09:12:00 GMT 48.976677 1.126677 24,650 275 421 1280
2019-06-18 09:11:57 GMT 48.975513 1.147349 24,575 275 420 1344
2019-06-18 09:11:53 GMT 48.975513 1.147349 24,550 275 420 1344
2019-06-18 09:11:50 GMT 48.975098 1.154865 24,500 275 420 1344
2019-06-18 09:11:46 GMT 48.974258 1.169899 24,350 275 420 1344
2019-06-18 09:11:43 GMT 48.973839 1.177055 24,325 275 420 1280
2019-06-18 09:11:39 GMT 48.973114 1.189693 24,225 275 420 1280
2019-06-18 09:11:35 GMT 48.972488 1.200545 24,150 275 419 1216
2019-06-18 09:11:32 GMT 48.971931 1.211170 24,000 275 418 1280
2019-06-18 09:11:28 GMT 48.971416 1.219844 23,875 275 417 1280
2019-06-18 09:11:25 GMT 48.970734 1.232018 23,925 275 417 1280
2019-06-18 09:11:21 GMT 48.970230 1.240328 23,850 275 417 1280
2019-06-18 09:11:18 GMT 48.969601 1.251791 23,825 275 417 1344
2019-06-18 09:11:12 GMT 48.968487 1.271162 23,650 276 416 1344
2019-06-18 09:11:08 GMT 48.967987 1.279696 23,500 276 416 1344
2019-06-18 09:11:04 GMT 48.967392 1.289767 22,475 276 415 1408
2019-06-18 09:11:01 GMT 48.966671 1.301735 23,325 276 416 1408
2019-06-18 09:10:56 GMT 48.965973 1.313923 23,300 276 415 1408
2019-06-18 09:10:53 GMT 48.965366 1.324142 23,225 276 415 1408
2019-06-18 09:10:50 GMT 48.964760 1.334261 23,150 276 415 1408
2019-06-18 09:10:47 GMT 48.964390 1.340549 23,050 275 414 1280
2019-06-18 09:10:43 GMT 48.963593 1.354206 22,975 276 414 1280
2019-06-18 09:10:37 GMT 48.962574 1.371990 22,800 276 412 1216
2019-06-18 09:10:32 GMT 48.961304 1.393503 22,725 276 410 1024
2019-06-18 09:10:26 GMT 48.960804 1.402058 22,650 276 410 1088
2019-06-18 09:10:20 GMT 48.959335 1.427378 22,550 276 409 960
2019-06-18 09:10:17 GMT 48.959335 1.427378 22,500 276 408 832
2019-06-18 09:10:14 GMT 48.958851 1.435956 22,475 276 405 960
2019-06-18 09:10:11 GMT 48.958328 1.444843 22,400 276 405 896
2019-06-18 09:10:07 GMT 48.957638 1.455905 22,375 276 404 1024
2019-06-18 09:10:03 GMT 48.956406 1.477098 22,275 276 402 1408
2019-06-18 09:09:56 GMT 48.955627 1.489774 22,100 276 402 1664
2019-06-18 09:09:52 GMT 48.955078 1.498550 21,800 276 402 1984
2019-06-18 09:09:49 GMT 48.954620 1.506535 21,925 276 402 1920
2019-06-18 09:09:45 GMT 48.954025 1.516606 21,150 276 404 2048
2019-06-18 09:09:42 GMT 48.953403 1.526738 21,675 276 402 1984
2019-06-18 09:09:39 GMT 48.952835 1.535480 21,575 276 403 2048
2019-06-18 09:09:36 GMT 48.952377 1.542856 19,500 287 405 1408
2019-06-18 09:09:33 GMT 48.951920 1.550903 21,400 276 404 1984
2019-06-18 09:09:29 GMT 48.951027 1.564684 21,225 276 404 2048
2019-06-18 09:09:24 GMT 48.950329 1.576249 21,100 277 404 1472
2019-06-18 09:09:21 GMT 48.949814 1.584778 21,000 276 405 1920
2019-06-18 09:09:18 GMT 48.949261 1.593957 20,900 276 405 1728
2019-06-18 09:09:14 GMT 48.948608 1.605016 20,725 287 400 -64
2019-06-18 09:09:10 GMT 48.947891 1.617526 20,650 275 405 1600
2019-06-18 09:09:05 GMT 48.947117 1.630964 20,525 276 404 1600
2019-06-18 09:08:58 GMT 48.945923 1.649992 20,325 280 405 1536
2019-06-18 09:08:55 GMT 48.944870 1.661612 19,750 287 406 1792
2019-06-18 09:08:49 GMT 48.942398 1.681753 20,050 284 405 1600
2019-06-18 09:08:46 GMT 48.941998 1.684378 20,025 285 406 1664
2019-06-18 09:08:39 GMT 48.938782 1.702740 19,850 287 407 1792
2019-06-18 09:08:35 GMT 48.936596 1.714012 19,725 287 406 1792
2019-06-18 09:08:32 GMT 48.934845 1.722952 19,625 287 406 1728
2019-06-18 09:08:26 GMT 48.929565 1.750151 19,425 287 405 1408
2019-06-18 09:08:22 GMT 48.929565 1.750151 19,400 287 404 1408
2019-06-18 09:08:15 GMT 48.925690 1.769996 19,225 287 402 1344
2019-06-18 09:08:12 GMT 48.923721 1.779926 19,150 287 402 1280
2019-06-18 09:08:09 GMT 48.922897 1.784081 19,025 287 400 0
2019-06-18 09:08:04 GMT 48.919785 1.800068 19,025 287 400 640
2019-06-18 09:08:01 GMT 48.918182 1.808237 19,000 287 400 64
2019-06-18 09:07:58 GMT 48.916534 1.816406 19,000 287 400 -64
2019-06-18 09:07:54 GMT 48.914532 1.826694 19,000 287 400 64
2019-06-18 09:07:50 GMT 48.912483 1.837174 19,000 287 400 64
2019-06-18 09:07:46 GMT 48.909164 1.854084 19,000 287 400 64
2019-06-18 09:07:43 GMT 48.909164 1.854084 19,000 287 400 0
2019-06-18 09:07:40 GMT 48.905136 1.874507 19,025 287 400 -64
2019-06-18 09:07:37 GMT 48.905136 1.874507 19,000 287 401 0
2019-06-18 09:07:31 GMT 48.902195 1.889432 19,000 287 400 0
2019-06-18 09:07:27 GMT 48.900833 1.896480 19,025 287 400 -64
2019-06-18 09:07:24 GMT 48.898819 1.906621 19,000 287 400 -64
2019-06-18 09:07:20 GMT 48.896713 1.917326 19,000 287 399 0
2019-06-18 09:07:16 GMT 48.894516 1.928241 19,000 287 401 0
2019-06-18 09:07:13 GMT 48.892326 1.939376 19,000 287 401 0
2019-06-18 09:07:10 GMT 48.891163 1.945158 19,000 287 402 0
2019-06-18 09:07:05 GMT 48.888554 1.958241 19,000 287 403 0
2019-06-18 09:07:02 GMT 48.887009 1.966201 19,000 287 404 0
2019-06-18 09:06:59 GMT 48.885590 1.973243 19,000 287 404 0
2019-06-18 09:06:55 GMT 48.883156 1.985707 19,000 287 405 0
2019-06-18 09:06:51 GMT 48.881104 1.995990 19,000 287 406 -64
2019-06-18 09:06:48 GMT 48.879433 2.004282 19,000 287 406 128
2019-06-18 09:06:42 GMT 48.876160 2.020639 19,000 287 405 192
2019-06-18 09:06:38 GMT 48.873596 2.033668 18,975 287 405 128
2019-06-18 09:06:32 GMT 48.870850 2.047330 18,950 287 397 1344
2019-06-18 09:06:28 GMT 48.868351 2.060081 18,900 287 401 576
2019-06-18 09:06:25 GMT 48.867142 2.066064 18,875 287 399 896
2019-06-18 09:06:21 GMT 48.865265 2.075641 18,650 287 397 1344
2019-06-18 09:06:17 GMT 48.862488 2.089571 18,650 287 396 1536
2019-06-18 09:06:14 GMT 48.860809 2.097883 18,650 287 395 1536
2019-06-18 09:06:11 GMT 48.859787 2.103159 18,475 287 393 1472
2019-06-18 09:06:05 GMT 48.856064 2.121879 18,425 287 393 1472
2019-06-18 09:06:02 GMT 48.854782 2.128390 18,375 287 392 1408
2019-06-18 09:05:59 GMT 48.853546 2.134587 18,250 287 391 1408
2019-06-18 09:05:55 GMT 48.851349 2.145433 18,225 287 390 1472
2019-06-18 09:05:51 GMT 48.849243 2.155996 18,125 287 389 1536
2019-06-18 09:05:48 GMT 48.847683 2.163945 18,050 287 388 1600
2019-06-18 09:05:44 GMT 48.845169 2.176490 17,900 287 387 1600
2019-06-18 09:05:41 GMT 48.843864 2.182954 17,850 287 387 1536
2019-06-18 09:05:37 GMT 48.842010 2.192336 17,675 287 385 1536
2019-06-18 09:05:33 GMT 48.839863 2.202976 17,600 287 384 1536
2019-06-18 09:05:30 GMT 48.838512 2.209698 17,600 287 384 1536
2019-06-18 09:05:27 GMT 48.837021 2.217287 17,525 287 383 1600
2019-06-18 09:05:24 GMT 48.835190 2.226351 17,450 287 383 1600
2019-06-18 09:05:20 GMT 48.833405 2.235436 17,300 287 376 1472
2019-06-18 09:05:17 GMT 48.831940 2.242760 17,250 287 381 1600
2019-06-18 09:05:14 GMT 48.829697 2.254028 17,125 287 379 1600
2019-06-18 09:05:11 GMT 48.827385 2.265786 17,050 287 376 1472
2019-06-18 09:05:05 GMT 48.825119 2.277339 16,900 287 376 1472
2019-06-18 09:05:02 GMT 48.823753 2.284144 16,825 287 376 1472
2019-06-18 09:04:59 GMT 48.822777 2.289276 16,775 287 375 1472
2019-06-18 09:04:54 GMT 48.820358 2.301354 16,625 287 373 1536
2019-06-18 09:04:51 GMT 48.818573 2.310298 16,575 287 373 1728
2019-06-18 09:04:48 GMT 48.816010 2.322834 14,675 288 371 2048
2019-06-18 09:04:42 GMT 48.814316 2.331073 16,300 288 372 2624
2019-06-18 09:04:39 GMT 48.810562 2.348891 16,075 288 373 3008
2019-06-18 09:04:36 GMT 48.810562 2.348891 15,925 288 374 3264
2019-06-18 09:04:33 GMT 48.809368 2.354688 15,825 287 374 3520
2019-06-18 09:04:30 GMT 48.806808 2.368399 15,475 283 377 3264
2019-06-18 09:04:22 GMT 48.804901 2.384250 15,150 274 377 2432
2019-06-18 09:04:19 GMT 48.804520 2.398118 14,200 254 350 704
2019-06-18 09:04:12 GMT 48.805088 2.409186 14,850 263 375 1728
2019-06-18 09:04:09 GMT 48.805984 2.417133 14,825 260 373 1600
2019-06-18 09:04:06 GMT 48.807041 2.424075 14,700 255 370 1216
2019-06-18 09:04:02 GMT 48.809326 2.436430 14,475 254 366 1472
2019-06-18 09:03:59 GMT 48.810471 2.442416 14,550 254 367 1472
2019-06-18 09:03:52 GMT 48.813885 2.459636 14,400 254 364 1152
2019-06-18 09:03:49 GMT 48.815323 2.466994 14,375 254 362 768
2019-06-18 09:03:45 GMT 48.817062 2.475797 14,300 254 359 704
2019-06-18 09:03:41 GMT 48.819424 2.487825 14,250 254 354 640
2019-06-18 09:03:35 GMT 48.821869 2.500376 14,175 254 348 704
2019-06-18 09:03:30 GMT 48.824219 2.512255 14,100 254 345 704
2019-06-18 09:03:27 GMT 48.825348 2.518123 14,125 254 344 704
2019-06-18 09:03:24 GMT 48.826721 2.525024 14,075 254 341 768
2019-06-18 09:03:20 GMT 48.828503 2.534156 13,975 254 335 832
2019-06-18 09:03:17 GMT 48.829853 2.541239 13,975 254 335 832
2019-06-18 09:03:13 GMT 48.831665 2.550307 13,900 254 331 1024
2019-06-18 09:03:09 GMT 48.833344 2.559019 13,800 254 328 1664
2019-06-18 09:03:06 GMT 48.834824 2.566364 13,600 254 327 2432
2019-06-18 09:03:02 GMT 48.836151 2.573266 13,600 254 327 2368
2019-06-18 09:02:58 GMT 48.838184 2.583666 13,075 254 310 832
2019-06-18 09:02:55 GMT 48.839443 2.590171 13,275 254 328 2496
2019-06-18 09:02:51 GMT 48.841232 2.599323 13,100 254 328 2368
2019-06-18 09:02:47 GMT 48.842880 2.607844 13,000 254 327 2112
2019-06-18 09:02:43 GMT 48.844563 2.616481 12,825 254 326 2048
2019-06-18 09:02:40 GMT 48.845947 2.623620 12,725 254 326 1984
2019-06-18 09:02:37 GMT 48.846985 2.628840 12,625 254 310 832
2019-06-18 09:02:33 GMT 48.848801 2.638237 12,550 254 323 1536
2019-06-18 09:02:30 GMT 48.850342 2.646297 12,450 254 321 1216
2019-06-18 09:02:27 GMT 48.851406 2.651536 12,400 254 318 1088
2019-06-18 09:02:23 GMT 48.852951 2.659607 12,350 254 314 896
2019-06-18 09:02:20 GMT 48.854153 2.665702 12,300 254 311 832
2019-06-18 09:02:17 GMT 48.855789 2.674044 12,250 254 309 832
2019-06-18 09:02:10 GMT 48.858307 2.686932 12,125 254 291 2560
2019-06-18 09:02:06 GMT 48.859818 2.694749 12,075 254 289 1984
2019-06-18 09:01:59 GMT 48.862381 2.708059 12,000 254 293 1280
2019-06-18 09:01:55 GMT 48.863983 2.716370 11,875 254 290 2048
2019-06-18 09:01:51 GMT 48.865463 2.723959 11,700 254 289 2688
2019-06-18 09:01:45 GMT 48.867691 2.735596 11,450 254 291 2432
2019-06-18 09:01:41 GMT 48.869373 2.744414 11,250 254 290 2240
2019-06-18 09:01:38 GMT 48.870575 2.750455 11,150 254 290 2176
2019-06-18 09:01:34 GMT 48.871841 2.757279 11,025 254 289 1984
2019-06-18 09:01:30 GMT 48.873333 2.765013 10,900 254 288 1856
2019-06-18 09:01:26 GMT 48.874775 2.772602 10,575 255 287 1792
2019-06-18 09:01:23 GMT 48.875839 2.778273 10,700 254 285 1856
2019-06-18 09:01:20 GMT 48.877396 2.786372 10,575 255 283 1728
2019-06-18 09:01:16 GMT 48.878311 2.791372 10,425 255 280 1856
2019-06-18 09:01:13 GMT 48.879383 2.797177 10,400 255 280 1856
2019-06-18 09:01:07 GMT 48.881836 2.810458 9,900 255 278 2432
2019-06-18 09:01:04 GMT 48.882889 2.816021 9,950 255 278 2688
2019-06-18 09:00:58 GMT 48.884674 2.825951 9,775 255 278 3008
2019-06-18 09:00:55 GMT 48.885910 2.832642 9,600 254 280 3008
2019-06-18 09:00:52 GMT 48.886692 2.836569 9,500 254 280 2944
2019-06-18 09:00:45 GMT 48.890717 2.855882 9,100 252 281 2816
2019-06-18 09:00:34 GMT 48.894699 2.871335 8,275 241 284 2560
2019-06-18 09:00:30 GMT 48.898052 2.880008 8,375 234 285 2496
2019-06-18 09:00:25 GMT 48.904613 2.891211 8,150 225 284 2432
2019-06-18 09:00:22 GMT 48.904613 2.891211 8,050 218 285 2368
2019-06-18 09:00:17 GMT 48.910126 2.897574 7,850 215 284 2368
2019-06-18 09:00:14 GMT 48.913879 2.900969 7,725 206 284 2112
2019-06-18 09:00:10 GMT 48.916950 2.903137 7,650 203 284 2048
2019-06-18 09:00:03 GMT 48.926029 2.907040 7,425 179 279 2048
2019-06-18 09:00:00 GMT 48.930218 2.907763 7,325 182 280 1856
2019-06-18 08:59:53 GMT 48.938828 2.907997 6,775 178 273 1856
2019-06-18 08:59:50 GMT 48.942974 2.907908 7,000 178 276 2048
2019-06-18 08:59:43 GMT 48.951958 2.907618 6,800 170 268 2112
2019-06-18 08:59:38 GMT 48.957733 2.907257 6,625 177 271 1920
2019-06-18 08:59:32 GMT 48.964993 2.906390 6,475 173 268 2176
2019-06-18 08:59:29 GMT 48.969452 2.905250 6,300 165 268 2112
2019-06-18 08:59:22 GMT 48.977516 2.901041 6,025 152 266 2048
2019-06-18 08:59:18 GMT 48.981754 2.897499 5,925 145 266 2112
2019-06-18 08:59:12 GMT 48.988129 2.889693 5,675 134 266 2304
2019-06-18 08:59:08 GMT 48.991341 2.884128 5,525 124 267 2240
2019-06-18 08:59:01 GMT 48.995579 2.873503 5,000 101 266 2048
2019-06-18 08:58:57 GMT 48.997486 2.865408 5,125 105 268 2048
2019-06-18 08:58:52 GMT 48.999348 2.852181 4,850 99 264 1984
2019-06-18 08:58:45 GMT 49.000076 2.845318 4,750 99 264 1920
2019-06-18 08:58:40 GMT 49.001163 2.835340 4,550 98 252 1024
2019-06-18 08:58:34 GMT 49.002144 2.825944 4,475 99 255 1216
2019-06-18 08:58:29 GMT 49.003052 2.817359 4,400 98 246 1024
2019-06-18 08:58:25 GMT 49.003830 2.809401 4,325 98 243 960
2019-06-18 08:58:20 GMT 49.004658 2.801225 4,250 98 236 896
2019-06-18 08:58:13 GMT 49.005726 2.790600 4,075 95 221 960
2019-06-18 08:58:10 GMT 49.006210 2.784964 4,025 95 221 960
2019-06-18 08:58:02 GMT 49.006851 2.772287 4,000 91 218 704
2019-06-18 08:57:58 GMT 49.006668 2.766160 3,900 85 210 512
2019-06-18 08:57:52 GMT 49.006165 2.756864 3,875 84 203 640
2019-06-18 08:57:49 GMT 49.005913 2.752364 3,825 85 197 640
2019-06-18 08:57:43 GMT 49.005386 2.743765 3,775 85 189 640
2019-06-18 08:57:40 GMT 49.005157 2.739540 3,725 85 189 640
2019-06-18 08:57:30 GMT 49.004425 2.726440 3,625 84 181 576
2019-06-18 08:57:27 GMT 49.004333 2.724469 3,625 84 181 576
2019-06-18 08:57:20 GMT 49.003773 2.714635 3,425 85 171 1024
2019-06-18 08:57:16 GMT 49.003601 2.711158 3,450 85 171 1280
2019-06-18 08:57:12 GMT 49.003281 2.705735 3,375 85 167 1472
2019-06-18 08:57:09 GMT 49.003075 2.702203 3,225 85 169 1408
2019-06-18 08:57:06 GMT 49.002888 2.698661 3,225 84 169 1472
2019-06-18 08:56:58 GMT 49.002281 2.688109 3,000 85 168 1408
2019-06-18 08:56:55 GMT 49.002190 2.686085 2,950 85 168 1408
2019-06-18 08:56:49 GMT 49.001724 2.677628 2,725 85 167 1472
2019-06-18 08:56:45 GMT 49.001495 2.673481 2,675 85 167 1472
2019-06-18 08:56:39 GMT 49.001118 2.667220 2,625 85 167 1472
2019-06-18 08:56:34 GMT 49.000809 2.660663 2,400 86 165 1600
2019-06-18 08:56:28 GMT 49.000420 2.652765 2,275 85 166 1408
2019-06-18 08:56:24 GMT 49.000214 2.648832 2,200 86 165 1536

Making use of Plane Finder data

You are free to use the raw flight data, aircraft information and images provided in this report for your own purposes provided the data is correctly attributed to Plane Finder. We ask that you please credit Plane Finder and link to planefinder.net in close proximity to the content.

Optionally one of the following logos (no smaller then 150x24px) can be used and must link to planefinder.net

Embedding the Plane Finder map

You are welcome to embed the Plane Finder playback map on your website to offer visitors a more interactive experience. We suggest using the following HTML code:

<iframe src="//planefinder.net/data/report/AA755-N285AY-7700-squawk-2019-06-18/map" width="800" height="600" seamless="seamless"></iframe>

Where our data comes from

Plane Finder has a global network of data feeds and antenna radars that receive data broadcast directly from aircraft. The primary technologies used are ADS-B and MLAT. We also show feeds from the FAA and a FLARM glider feed.

Click here to find out more about the Plane Finder network.

How we collect our data